createdAt,value
2023-02-26T00:00:31.116Z,1.40
2023-02-26T00:02:58.574Z,1.40
2023-02-26T00:05:25.706Z,1.20
2023-02-26T00:07:53.475Z,1.20
2023-02-26T00:10:20.668Z,1.30
2023-02-26T00:12:47.954Z,1.20
2023-02-26T00:15:17.621Z,1.10
2023-02-26T00:17:49.674Z,1.03
2023-02-26T00:20:17.440Z,1.40
2023-02-26T00:22:44.935Z,0.90
2023-02-26T00:25:12.313Z,1.30
2023-02-26T00:27:39.768Z,1.27
2023-02-26T00:30:08.489Z,1.03
2023-02-26T00:32:36.600Z,0.97
2023-02-26T00:35:03.950Z,1.07
2023-02-26T00:37:43.496Z,1.13
2023-02-26T00:40:22.081Z,1.07
2023-02-26T00:42:49.497Z,1.17
2023-02-26T00:45:16.831Z,1.30
2023-02-26T00:47:53.849Z,1.20
2023-02-26T00:50:22.309Z,1.20
2023-02-26T00:53:12.659Z,1.00
2023-02-26T00:55:39.858Z,1.07
2023-02-26T00:58:07.170Z,0.93
2023-02-26T01:00:34.712Z,1.23
2023-02-26T01:03:02.014Z,1.27
2023-02-26T01:05:29.427Z,1.20
2023-02-26T01:08:02.605Z,1.00
2023-02-26T01:10:29.995Z,1.33
2023-02-26T01:12:57.288Z,1.17
2023-02-26T01:15:25.043Z,1.10
2023-02-26T01:18:00.589Z,1.20
2023-02-26T01:20:29.804Z,1.37
2023-02-26T01:23:08.917Z,1.40
2023-02-26T01:25:39.825Z,1.40
2023-02-26T01:28:07.104Z,1.20
2023-02-26T01:30:34.451Z,1.33
2023-02-26T01:33:20.316Z,1.27
2023-02-26T01:36:02.102Z,1.50
2023-02-26T01:38:48.172Z,1.30
2023-02-26T01:41:15.281Z,1.13
2023-02-26T01:44:00.789Z,1.03
2023-02-26T01:46:30.947Z,1.40
2023-02-26T01:48:59.402Z,0.97
2023-02-26T01:51:41.952Z,1.03
2023-02-26T01:54:09.147Z,1.10
2023-02-26T01:56:36.539Z,1.20
2023-02-26T01:59:06.041Z,1.27
2023-02-26T02:01:34.189Z,0.93
2023-02-26T02:04:01.480Z,1.10
2023-02-26T02:06:30.496Z,1.00
2023-02-26T02:08:57.750Z,1.20
2023-02-26T02:11:25.134Z,1.00
2023-02-26T02:14:00.957Z,0.90
2023-02-26T02:16:31.549Z,0.97
2023-02-26T02:19:01.783Z,1.00
2023-02-26T02:21:29.854Z,0.90
2023-02-26T02:24:05.295Z,1.00
2023-02-26T02:26:51.068Z,1.30
2023-02-26T02:29:27.444Z,1.10
2023-02-26T02:31:57.609Z,0.97
2023-02-26T02:34:24.860Z,1.10
2023-02-26T02:37:12.557Z,1.10
2023-02-26T02:39:45.219Z,0.90
2023-02-26T02:42:15.330Z,1.07
2023-02-26T02:44:44.534Z,0.90
2023-02-26T02:47:12.372Z,0.87
2023-02-26T02:49:46.366Z,0.97
2023-02-26T02:52:20.475Z,1.00
2023-02-26T02:54:49.858Z,0.83
2023-02-26T02:57:22.186Z,0.90
2023-02-26T02:59:52.176Z,1.07
2023-02-26T03:02:27.406Z,0.90
2023-02-26T03:04:54.569Z,1.20
2023-02-26T03:07:21.745Z,1.00
2023-02-26T03:09:49.014Z,1.10
2023-02-26T03:12:16.139Z,1.10
2023-02-26T03:14:43.844Z,1.00
2023-02-26T03:17:17.142Z,1.03
2023-02-26T03:19:44.244Z,1.00
2023-02-26T03:22:17.315Z,0.90
2023-02-26T03:25:07.592Z,1.10
2023-02-26T03:27:44.821Z,1.10
2023-02-26T03:30:12.071Z,1.00
2023-02-26T03:32:47.974Z,1.03
2023-02-26T03:35:20.066Z,1.10
2023-02-26T03:37:48.771Z,1.10
2023-02-26T03:40:21.651Z,1.00
2023-02-26T03:42:57.972Z,0.90
2023-02-26T03:45:27.396Z,1.30
2023-02-26T03:47:55.021Z,1.10
2023-02-26T03:50:37.661Z,1.03
2023-02-26T03:53:06.837Z,0.83
2023-02-26T03:55:41.709Z,0.83
2023-02-26T03:58:08.863Z,0.93
2023-02-26T04:00:38.046Z,0.93
2023-02-26T04:03:11.407Z,1.00
2023-02-26T04:05:41.091Z,0.80
2023-02-26T04:08:08.408Z,1.10
2023-02-26T04:10:55.847Z,0.90
2023-02-26T04:13:23.023Z,0.90
2023-02-26T04:15:50.153Z,0.93
2023-02-26T04:18:17.276Z,0.90
2023-02-26T04:20:44.428Z,1.13
2023-02-26T04:23:11.559Z,1.20
2023-02-26T04:25:38.793Z,1.30
2023-02-26T04:28:05.930Z,1.17
2023-02-26T04:30:33.522Z,1.10
2023-02-26T04:33:00.670Z,0.77
2023-02-26T04:35:27.800Z,1.00
2023-02-26T04:37:54.961Z,1.27
2023-02-26T04:40:23.963Z,0.90
2023-02-26T04:42:51.554Z,1.20
2023-02-26T04:45:18.682Z,1.00
2023-02-26T04:47:45.854Z,0.93
2023-02-26T04:50:13.032Z,1.03
2023-02-26T04:52:40.200Z,1.27
2023-02-26T04:55:07.640Z,1.00
2023-02-26T04:57:34.779Z,0.90
2023-02-26T05:00:02.158Z,0.80
2023-02-26T05:02:29.362Z,0.80
2023-02-26T05:04:56.694Z,0.70
2023-02-26T05:07:23.958Z,0.90
2023-02-26T05:09:51.101Z,1.10
2023-02-26T05:12:18.360Z,1.07
2023-02-26T05:14:45.484Z,0.90
2023-02-26T05:17:13.382Z,1.07
2023-02-26T05:19:40.544Z,1.00
2023-02-26T05:22:07.683Z,1.30
2023-02-26T05:24:35.163Z,1.10
2023-02-26T05:27:02.352Z,0.97
2023-02-26T05:29:29.522Z,0.93
2023-02-26T05:31:56.811Z,1.00
2023-02-26T05:34:24.022Z,1.10
2023-02-26T05:36:51.304Z,1.10
2023-02-26T05:39:18.465Z,1.07
2023-02-26T05:41:46.548Z,1.20
2023-02-26T05:44:14.174Z,0.80
2023-02-26T05:46:41.359Z,1.03
2023-02-26T05:49:08.672Z,0.90
2023-02-26T05:51:35.892Z,1.03
2023-02-26T05:54:03.020Z,1.17
2023-02-26T05:56:30.209Z,1.27
2023-02-26T05:58:57.450Z,1.00
2023-02-26T06:01:24.873Z,1.00
2023-02-26T06:03:52.015Z,0.80
2023-02-26T06:06:19.201Z,1.00
2023-02-26T06:08:46.571Z,1.20
2023-02-26T06:11:13.948Z,1.00
2023-02-26T06:13:41.387Z,1.10
2023-02-26T06:16:08.588Z,1.10
2023-02-26T06:18:35.764Z,1.10
2023-02-26T06:21:03.487Z,1.03
2023-02-26T06:23:30.616Z,1.10
2023-02-26T06:25:59.824Z,0.80
2023-02-26T06:28:27.425Z,1.10
2023-02-26T06:30:54.793Z,0.90
2023-02-26T06:33:22.295Z,1.20
2023-02-26T06:35:49.423Z,1.20
2023-02-26T06:38:17.002Z,1.20
2023-02-26T06:40:44.222Z,1.00
2023-02-26T06:43:11.532Z,1.10
2023-02-26T06:45:38.728Z,1.30
2023-02-26T06:48:06.190Z,0.90
2023-02-26T06:50:33.406Z,1.20
2023-02-26T06:53:00.587Z,0.83
2023-02-26T06:55:27.814Z,1.33
2023-02-26T06:57:55.325Z,1.10
2023-02-26T07:00:22.852Z,1.10
2023-02-26T07:02:50.263Z,1.20
2023-02-26T07:05:18.124Z,1.30
2023-02-26T07:07:45.301Z,1.10
2023-02-26T07:10:12.952Z,1.30
2023-02-26T07:12:40.100Z,0.87
2023-02-26T07:15:07.538Z,1.50
2023-02-26T07:17:34.676Z,1.00
2023-02-26T07:20:06.459Z,1.20
2023-02-26T07:22:33.971Z,1.30
2023-02-26T07:25:01.243Z,0.93
2023-02-26T07:27:30.035Z,1.10
2023-02-26T07:29:57.228Z,1.07
2023-02-26T07:32:24.452Z,1.10
2023-02-26T07:34:51.840Z,0.93
2023-02-26T07:37:19.182Z,0.97
2023-02-26T07:39:46.399Z,0.93
2023-02-26T07:42:13.817Z,1.10
2023-02-26T07:44:41.003Z,1.20
2023-02-26T07:47:08.173Z,1.13
2023-02-26T07:49:35.317Z,1.30
2023-02-26T07:52:02.980Z,1.30
2023-02-26T07:54:30.123Z,1.03
2023-02-26T07:56:57.285Z,1.20
2023-02-26T07:59:24.420Z,1.17
2023-02-26T08:01:51.697Z,1.17
2023-02-26T08:04:19.075Z,1.20
2023-02-26T08:06:46.259Z,1.00
2023-02-26T08:09:13.445Z,1.30
2023-02-26T08:11:43.219Z,0.97
2023-02-26T08:14:11.591Z,1.00
2023-02-26T08:16:38.734Z,1.23
2023-02-26T08:19:06.143Z,1.33
2023-02-26T08:21:33.312Z,1.50
2023-02-26T08:24:00.843Z,1.37
2023-02-26T08:26:28.377Z,0.90
2023-02-26T08:28:55.715Z,0.90
2023-02-26T08:31:22.935Z,1.40
2023-02-26T08:33:50.151Z,0.90
2023-02-26T08:36:17.318Z,1.30
2023-02-26T08:38:44.509Z,0.80
2023-02-26T08:41:11.678Z,1.10
2023-02-26T08:43:38.798Z,1.23
2023-02-26T08:46:06.402Z,1.10
2023-02-26T08:48:33.590Z,0.93
2023-02-26T08:51:00.794Z,1.00
2023-02-26T08:53:27.997Z,1.20
2023-02-26T08:55:55.193Z,0.93
2023-02-26T08:58:22.389Z,1.00
2023-02-26T09:00:49.583Z,1.23
2023-02-26T09:03:16.808Z,1.20
2023-02-26T09:05:43.974Z,1.03
2023-02-26T09:08:11.569Z,0.90
2023-02-26T09:10:40.738Z,1.10
2023-02-26T09:13:08.344Z,1.10
2023-02-26T09:15:35.474Z,1.10
2023-02-26T09:18:02.640Z,1.10
2023-02-26T09:20:29.795Z,1.17
2023-02-26T09:22:57.019Z,1.10
2023-02-26T09:25:24.205Z,1.30
2023-02-26T09:27:51.442Z,1.10
2023-02-26T09:30:18.693Z,0.97
2023-02-26T09:32:45.887Z,1.00
2023-02-26T09:35:13.109Z,1.40
2023-02-26T09:37:40.293Z,1.10
2023-02-26T09:40:07.969Z,1.00
2023-02-26T09:42:35.139Z,1.20
2023-02-26T09:45:02.757Z,0.90
2023-02-26T09:47:39.316Z,1.20
2023-02-26T09:50:10.263Z,1.13
2023-02-26T09:52:46.729Z,1.20
2023-02-26T09:55:32.707Z,1.00
2023-02-26T09:58:01.489Z,1.33
2023-02-26T10:00:40.409Z,1.10
2023-02-26T10:03:13.483Z,1.10
2023-02-26T10:05:41.061Z,1.10
2023-02-26T10:08:15.969Z,1.00
2023-02-26T10:10:46.285Z,1.10
2023-02-26T10:13:25.944Z,0.93
2023-02-26T10:15:54.067Z,1.27
2023-02-26T10:18:26.700Z,1.27
2023-02-26T10:20:56.962Z,1.37
2023-02-26T10:23:24.125Z,1.20
2023-02-26T10:26:14.322Z,1.50
2023-02-26T10:29:00.429Z,1.20
2023-02-26T10:31:33.459Z,1.50
2023-02-26T10:34:03.764Z,1.20
2023-02-26T10:36:33.495Z,1.10
2023-02-26T10:39:16.840Z,1.50
2023-02-26T10:41:44.352Z,1.17
2023-02-26T10:44:18.849Z,1.30
2023-02-26T10:46:45.954Z,1.33
2023-02-26T10:49:28.482Z,1.20
2023-02-26T10:51:57.033Z,1.20
2023-02-26T10:54:38.119Z,1.20
2023-02-26T10:57:05.383Z,1.10
2023-02-26T10:59:32.552Z,1.10
2023-02-26T11:02:00.162Z,1.17
2023-02-26T11:04:28.044Z,1.17
2023-02-26T11:06:57.198Z,1.20
2023-02-26T11:09:32.344Z,1.00
2023-02-26T11:12:05.355Z,1.30
2023-02-26T11:14:33.136Z,1.50
2023-02-26T11:17:03.445Z,0.90
2023-02-26T11:19:42.285Z,1.20
2023-02-26T11:22:13.160Z,1.10
2023-02-26T11:24:51.113Z,1.17
2023-02-26T11:27:37.207Z,0.90
2023-02-26T11:30:20.642Z,1.20
2023-02-26T11:32:51.142Z,1.20
2023-02-26T11:35:19.017Z,1.40
2023-02-26T11:37:56.472Z,1.40
2023-02-26T11:40:35.816Z,1.37
2023-02-26T11:43:05.690Z,1.40
2023-02-26T11:45:35.373Z,1.00
2023-02-26T11:48:07.140Z,1.17
2023-02-26T11:50:43.294Z,1.10
2023-02-26T11:53:18.581Z,1.40
2023-02-26T11:55:50.037Z,1.40
2023-02-26T11:58:22.019Z,1.63
2023-02-26T12:00:49.961Z,1.20
2023-02-26T12:03:18.899Z,1.20
2023-02-26T12:05:46.134Z,1.40
2023-02-26T12:08:19.320Z,1.37
2023-02-26T12:11:00.395Z,1.27
2023-02-26T12:13:38.636Z,1.50
2023-02-26T12:16:41.464Z,1.27
2023-02-26T12:19:17.410Z,1.50
2023-02-26T12:21:44.548Z,1.27
2023-02-26T12:24:16.694Z,1.47
2023-02-26T12:27:06.941Z,1.40
2023-02-26T12:29:40.187Z,1.30
2023-02-26T12:32:07.481Z,1.20
2023-02-26T12:34:52.651Z,1.20
2023-02-26T12:37:35.076Z,1.30
2023-02-26T12:40:06.447Z,1.00
2023-02-26T12:42:53.927Z,1.37
2023-02-26T12:45:34.596Z,1.40
2023-02-26T12:48:04.852Z,1.30
2023-02-26T12:50:50.508Z,1.40
2023-02-26T12:53:17.647Z,1.30
2023-02-26T12:56:03.468Z,1.37
2023-02-26T12:58:49.394Z,1.10
2023-02-26T13:01:19.733Z,1.30
2023-02-26T13:03:55.826Z,1.27
2023-02-26T13:06:33.004Z,1.57
2023-02-26T13:09:13.074Z,1.20
2023-02-26T13:11:52.484Z,1.30
2023-02-26T13:14:45.752Z,1.10
2023-02-26T13:17:31.657Z,1.10
2023-02-26T13:20:14.477Z,1.20
2023-02-26T13:22:46.850Z,1.47
2023-02-26T13:25:32.589Z,1.60
2023-02-26T13:28:00.365Z,1.20
2023-02-26T13:30:53.640Z,1.20
2023-02-26T13:33:23.892Z,1.30
2023-02-26T13:35:53.497Z,1.40
2023-02-26T13:38:26.716Z,1.27
2023-02-26T13:41:14.084Z,1.13
2023-02-26T13:43:51.371Z,1.50
2023-02-26T13:46:20.874Z,1.20
2023-02-26T13:48:56.892Z,1.37
2023-02-26T13:51:42.556Z,1.40
2023-02-26T13:54:09.796Z,1.60
2023-02-26T13:56:36.921Z,1.67
2023-02-26T13:59:13.574Z,1.50
2023-02-26T14:01:50.036Z,1.27
2023-02-26T14:04:23.429Z,1.40
2023-02-26T14:06:54.740Z,1.20
2023-02-26T14:09:26.315Z,1.87
2023-02-26T14:11:56.578Z,1.40
2023-02-26T14:14:25.498Z,1.40
2023-02-26T14:17:15.715Z,1.50
2023-02-26T14:19:42.823Z,1.20
2023-02-26T14:22:09.930Z,1.37
2023-02-26T14:24:38.537Z,1.50
2023-02-26T14:27:22.721Z,1.20
2023-02-26T14:29:58.960Z,1.30
2023-02-26T14:32:44.766Z,1.37
2023-02-26T14:35:25.957Z,1.40
2023-02-26T14:38:13.500Z,1.27
2023-02-26T14:40:46.771Z,1.43
2023-02-26T14:43:18.278Z,1.60
2023-02-26T14:45:46.087Z,1.40
2023-02-26T14:48:18.702Z,1.60
2023-02-26T14:51:04.757Z,1.50
2023-02-26T14:53:50.670Z,1.60
2023-02-26T14:56:32.352Z,1.50
2023-02-26T14:59:31.900Z,1.40
2023-02-26T15:02:01.849Z,1.30
2023-02-26T15:04:47.880Z,1.13
2023-02-26T15:07:33.887Z,1.63
2023-02-26T15:10:04.187Z,1.50
2023-02-26T15:12:49.858Z,1.70
2023-02-26T15:15:22.799Z,1.40
2023-02-26T15:18:08.506Z,1.43
2023-02-26T15:20:44.782Z,1.40
2023-02-26T15:23:26.883Z,1.50
2023-02-26T15:25:57.094Z,1.60
2023-02-26T15:28:38.031Z,1.43
2023-02-26T15:31:06.471Z,1.60
2023-02-26T15:33:34.305Z,1.57
2023-02-26T15:36:02.059Z,1.80
2023-02-26T15:38:30.994Z,1.60
2023-02-26T15:41:00.373Z,1.80
2023-02-26T15:43:29.333Z,1.50
2023-02-26T15:45:57.578Z,1.40
2023-02-26T15:48:24.742Z,1.97
2023-02-26T15:50:57.899Z,1.43
2023-02-26T15:53:45.305Z,1.70
2023-02-26T15:56:19.590Z,1.37
2023-02-26T15:58:51.697Z,1.50
2023-02-26T16:01:20.253Z,1.60
2023-02-26T16:03:48.075Z,1.70
2023-02-26T16:06:20.436Z,1.70
2023-02-26T16:08:47.578Z,2.13
2023-02-26T16:11:15.334Z,1.77
2023-02-26T16:13:44.146Z,1.80
2023-02-26T16:16:18.591Z,1.80
2023-02-26T16:18:46.161Z,1.70
2023-02-26T16:21:19.761Z,1.70
2023-02-26T16:23:51.479Z,1.57
2023-02-26T16:26:22.319Z,1.63
2023-02-26T16:28:51.040Z,1.60
2023-02-26T16:31:20.020Z,1.70
2023-02-26T16:34:05.089Z,1.60
2023-02-26T16:36:41.280Z,1.70
2023-02-26T16:39:08.837Z,1.80
2023-02-26T16:41:37.688Z,1.80
2023-02-26T16:44:05.704Z,1.80
2023-02-26T16:46:35.734Z,1.73
2023-02-26T16:49:07.932Z,2.00
2023-02-26T16:51:37.448Z,2.03
2023-02-26T16:54:07.635Z,2.07
2023-02-26T16:56:36.313Z,1.80
2023-02-26T16:59:08.764Z,2.17
2023-02-26T17:01:42.681Z,2.00
2023-02-26T17:04:12.929Z,2.30
2023-02-26T17:06:41.955Z,1.97
2023-02-26T17:09:23.904Z,2.00
2023-02-26T17:11:51.033Z,2.00
2023-02-26T17:14:29.152Z,1.90
2023-02-26T17:16:56.356Z,2.00
2023-02-26T17:19:23.498Z,2.00
2023-02-26T17:21:53.973Z,1.90
2023-02-26T17:24:22.422Z,1.80
2023-02-26T17:26:49.642Z,1.70
2023-02-26T17:29:24.502Z,1.80
2023-02-26T17:31:51.740Z,1.87
2023-02-26T17:34:20.209Z,1.93
2023-02-26T17:36:47.690Z,2.13
2023-02-26T17:39:14.846Z,2.00
2023-02-26T17:41:45.854Z,1.90
2023-02-26T17:44:13.008Z,1.90
2023-02-26T17:46:40.160Z,2.23
2023-02-26T17:49:07.305Z,2.10
2023-02-26T17:51:34.500Z,2.00
2023-02-26T17:54:01.617Z,2.00
2023-02-26T17:56:29.973Z,2.30
2023-02-26T17:58:57.942Z,2.00
2023-02-26T18:01:26.679Z,1.90
2023-02-26T18:03:54.957Z,2.23
2023-02-26T18:06:22.660Z,2.37
2023-02-26T18:08:49.881Z,1.90
2023-02-26T18:11:17.750Z,2.07
2023-02-26T18:13:44.893Z,1.80
2023-02-26T18:16:22.567Z,2.00
2023-02-26T18:18:50.769Z,1.67
2023-02-26T18:21:20.218Z,4.30
2023-02-26T18:23:47.357Z,1.97
2023-02-26T18:26:16.578Z,2.00
2023-02-26T18:28:43.724Z,2.13
2023-02-26T18:31:11.108Z,2.00
2023-02-26T18:33:40.645Z,2.00
2023-02-26T18:36:08.237Z,1.60
2023-02-26T18:38:36.583Z,2.37
2023-02-26T18:41:03.712Z,1.70
2023-02-26T18:43:30.904Z,2.10
2023-02-26T18:46:01.360Z,1.70
2023-02-26T18:48:28.938Z,1.70
2023-02-26T18:50:56.075Z,1.87
2023-02-26T18:53:23.825Z,2.20
2023-02-26T18:55:52.699Z,1.80
2023-02-26T18:58:20.553Z,1.80
2023-02-26T19:00:47.728Z,1.60
2023-02-26T19:03:15.139Z,1.83
2023-02-26T19:05:42.391Z,1.73
2023-02-26T19:08:09.941Z,1.83
2023-02-26T19:10:37.233Z,1.70
2023-02-26T19:13:04.946Z,2.10
2023-02-26T19:15:32.145Z,2.13
2023-02-26T19:17:59.336Z,2.07
2023-02-26T19:20:26.464Z,1.87
2023-02-26T19:22:54.104Z,2.37
2023-02-26T19:25:24.070Z,2.50
2023-02-26T19:27:53.298Z,2.20
2023-02-26T19:30:21.651Z,1.97
2023-02-26T19:32:48.840Z,2.10
2023-02-26T19:35:16.166Z,1.90
2023-02-26T19:37:43.345Z,1.70
2023-02-26T19:40:16.110Z,2.00
2023-02-26T19:42:43.780Z,1.90
2023-02-26T19:45:11.489Z,1.87
2023-02-26T19:47:38.700Z,1.90
2023-02-26T19:50:06.276Z,3.03
2023-02-26T19:52:33.907Z,2.20
2023-02-26T19:55:01.265Z,1.83
2023-02-26T19:57:28.589Z,1.80
2023-02-26T19:59:56.250Z,2.13
2023-02-26T20:02:23.463Z,1.80
2023-02-26T20:04:50.597Z,1.80
2023-02-26T20:07:17.888Z,1.60
2023-02-26T20:09:45.032Z,1.60
2023-02-26T20:12:12.240Z,1.60
2023-02-26T20:14:39.370Z,1.67
2023-02-26T20:17:06.527Z,1.83
2023-02-26T20:19:33.666Z,1.70
2023-02-26T20:22:00.980Z,1.80
2023-02-26T20:24:28.121Z,1.83
2023-02-26T20:26:55.257Z,1.77
2023-02-26T20:29:23.553Z,1.60
2023-02-26T20:31:51.008Z,1.73
2023-02-26T20:34:19.313Z,1.90
2023-02-26T20:36:48.290Z,2.13
2023-02-26T20:39:15.456Z,1.70
2023-02-26T20:41:42.816Z,1.70
2023-02-26T20:44:09.931Z,1.60
2023-02-26T20:46:38.806Z,1.70
2023-02-26T20:49:11.442Z,1.60
2023-02-26T20:51:39.672Z,1.90
2023-02-26T20:54:06.993Z,1.60
2023-02-26T20:56:34.294Z,1.70
2023-02-26T20:59:01.793Z,1.80
2023-02-26T21:01:35.411Z,1.70
2023-02-26T21:04:03.652Z,1.70
2023-02-26T21:06:31.853Z,1.83
2023-02-26T21:09:00.233Z,1.60
2023-02-26T21:11:30.417Z,1.70
2023-02-26T21:13:58.222Z,1.60
2023-02-26T21:16:25.534Z,1.63
2023-02-26T21:18:52.752Z,1.50
2023-02-26T21:21:19.941Z,1.50
2023-02-26T21:23:47.173Z,1.93
2023-02-26T21:26:14.381Z,1.60
2023-02-26T21:28:41.563Z,1.60
2023-02-26T21:31:09.196Z,1.80
2023-02-26T21:33:36.400Z,2.00
2023-02-26T21:36:04.191Z,1.70
2023-02-26T21:38:31.395Z,1.60
2023-02-26T21:40:58.926Z,1.80
2023-02-26T21:43:26.098Z,1.73
2023-02-26T21:45:53.351Z,1.80
2023-02-26T21:48:20.498Z,1.70
2023-02-26T21:50:49.295Z,1.63
2023-02-26T21:53:16.460Z,1.77
2023-02-26T21:55:43.646Z,2.00
2023-02-26T21:58:10.845Z,1.90
2023-02-26T22:00:38.043Z,1.83
2023-02-26T22:03:05.355Z,2.10
2023-02-26T22:05:32.472Z,2.00
2023-02-26T22:07:59.641Z,1.80
2023-02-26T22:10:26.787Z,1.80
2023-02-26T22:12:53.940Z,1.80
2023-02-26T22:15:21.505Z,1.70
2023-02-26T22:17:48.616Z,1.80
2023-02-26T22:20:15.810Z,1.63
2023-02-26T22:22:42.976Z,2.00
2023-02-26T22:25:11.785Z,1.70
2023-02-26T22:27:39.437Z,1.80
2023-02-26T22:30:07.964Z,1.70
2023-02-26T22:32:35.244Z,1.53
2023-02-26T22:35:02.539Z,1.70
2023-02-26T22:37:29.729Z,1.53
2023-02-26T22:39:56.887Z,1.60
2023-02-26T22:42:24.095Z,1.70
2023-02-26T22:44:51.427Z,1.57
2023-02-26T22:47:18.545Z,1.60
2023-02-26T22:49:46.166Z,1.47
2023-02-26T22:52:14.000Z,1.50
2023-02-26T22:54:41.421Z,1.70
2023-02-26T22:57:09.148Z,1.70
2023-02-26T22:59:36.266Z,2.00
2023-02-26T23:02:03.461Z,1.60
2023-02-26T23:04:30.666Z,1.90
2023-02-26T23:06:57.809Z,1.63
2023-02-26T23:09:25.021Z,1.60
2023-02-26T23:11:52.222Z,1.50
2023-02-26T23:14:19.437Z,1.70
2023-02-26T23:16:46.595Z,1.50
2023-02-26T23:19:13.878Z,1.63
2023-02-26T23:21:41.059Z,1.53
2023-02-26T23:24:08.193Z,1.50
2023-02-26T23:26:35.313Z,1.40
2023-02-26T23:29:02.514Z,1.50
2023-02-26T23:31:30.172Z,1.57
2023-02-26T23:33:57.625Z,1.40
2023-02-26T23:36:24.762Z,1.60
2023-02-26T23:38:51.860Z,1.60
2023-02-26T23:41:19.935Z,1.77
2023-02-26T23:43:47.060Z,1.60
2023-02-26T23:46:14.322Z,1.80
2023-02-26T23:48:41.574Z,1.60
2023-02-26T23:51:08.720Z,1.73
2023-02-26T23:53:35.837Z,1.60
2023-02-26T23:56:02.944Z,1.40
2023-02-26T23:58:30.997Z,1.50
